Time;durP1;ratioP1;P1;durP2;ratioP2;P2;SDS_P1;SDS_P2;PMS_P1;PMS_P2;Temp;Humidity;BMP_temperature;BMP_pressure;BME280_temperature;BME280_humidity;BME280_pressure;Samples;Min_cycle;Max_cycle;Signal;HPM_P1;HPM_P2
2023/11/08 00:01:47;;;;;;;9.45;5.65;;;;;;;24.60;40.30;99424.31;4484822;32;34130;-61
2023/11/08 00:04:14;;;;;;;10.95;5.87;;;;;;;24.60;40.29;99429.78;4484689;32;33850;-60
2023/11/08 00:06:42;;;;;;;11.95;5.62;;;;;;;24.59;40.32;99425.41;4483259;32;34140;-59
2023/11/08 00:09:10;;;;;;;13.50;6.15;;;;;;;24.59;40.37;99421.84;4484695;32;34682;-60
2023/11/08 00:11:38;;;;;;;9.93;5.60;;;;;;;24.58;40.41;99431.94;4484631;32;33766;-60
2023/11/08 00:14:07;;;;;;;12.15;5.65;;;;;;;24.58;40.39;99422.91;4482712;32;33758;-59
2023/11/08 00:16:36;;;;;;;8.95;5.25;;;;;;;24.58;40.38;99415.56;4484432;32;34498;-59
2023/11/08 00:19:08;;;;;;;7.75;5.53;;;;;;;24.57;40.49;99418.50;4484744;32;34957;-59
2023/11/08 00:21:37;;;;;;;10.05;5.47;;;;;;;24.58;40.45;99420.19;4484927;32;33531;-60
2023/11/08 00:24:05;;;;;;;10.73;5.82;;;;;;;24.56;40.47;99406.78;4484871;32;33943;-60
2023/11/08 00:26:32;;;;;;;8.43;5.37;;;;;;;24.57;40.50;99415.78;4484469;32;34895;-59
2023/11/08 00:29:00;;;;;;;12.20;6.18;;;;;;;24.56;40.45;99411.41;4484470;32;34068;-62
2023/11/08 00:31:28;;;;;;;9.35;5.28;;;;;;;24.54;40.50;99406.22;4484551;32;33263;-60
2023/11/08 00:33:55;;;;;;;9.90;5.35;;;;;;;24.54;40.48;99408.94;4484395;32;34730;-57
2023/11/08 00:36:23;;;;;;;9.05;5.03;;;;;;;24.54;40.50;99406.22;4484475;32;34001;-59
2023/11/08 00:38:51;;;;;;;8.07;5.22;;;;;;;24.54;40.54;99397.19;4483998;32;34245;-58
2023/11/08 00:41:18;;;;;;;11.30;5.30;;;;;;;24.54;40.55;99398.03;4484151;32;33588;-57
2023/11/08 00:43:46;;;;;;;10.27;5.15;;;;;;;24.53;40.51;99379.16;4484567;32;33988;-60
2023/11/08 00:46:13;;;;;;;9.27;5.30;;;;;;;24.52;40.59;99375.59;4484431;32;34814;-58
2023/11/08 00:48:41;;;;;;;9.43;5.30;;;;;;;24.52;40.64;99380.22;4483918;32;33853;-55
2023/11/08 00:51:09;;;;;;;8.52;5.30;;;;;;;24.52;40.68;99381.06;4484486;32;34365;-57
2023/11/08 00:53:37;;;;;;;13.32;5.70;;;;;;;24.52;40.80;99383.78;4484407;32;33865;-60
2023/11/08 00:56:05;;;;;;;8.45;5.00;;;;;;;24.51;40.63;99373.94;4484235;32;35036;-59
2023/11/08 00:58:32;;;;;;;9.02;5.18;;;;;;;24.51;40.75;99378.59;4484416;32;34601;-60
2023/11/08 01:01:00;;;;;;;6.55;4.50;;;;;;;24.50;40.75;99372.31;4484330;32;33610;-58
2023/11/08 01:03:27;;;;;;;8.15;5.18;;;;;;;24.50;40.83;99375.03;4483164;32;32991;-57
2023/11/08 01:05:56;;;;;;;8.02;4.95;;;;;;;24.49;40.80;99373.38;4484296;32;34801;-59
2023/11/08 01:08:24;;;;;;;11.05;5.12;;;;;;;24.49;40.84;99375.28;4484090;32;33790;-60
2023/11/08 01:10:51;;;;;;;8.88;4.87;;;;;;;24.49;40.77;99372.56;4484324;32;34277;-57
2023/11/08 01:13:20;;;;;;;8.38;4.93;;;;;;;24.47;40.82;99372.78;4484183;32;34082;-59
2023/11/08 01:15:47;;;;;;;9.13;4.90;;;;;;;24.48;40.82;99366.28;4484298;32;33851;-59
2023/11/08 01:18:16;;;;;;;8.90;5.00;;;;;;;24.46;40.87;99371.13;4484027;32;34075;-57
2023/11/08 01:20:44;;;;;;;7.28;4.87;;;;;;;24.46;40.95;99373.88;4484133;32;33162;-56
2023/11/08 01:23:13;;;;;;;7.68;5.00;;;;;;;24.47;40.91;99369.22;4484222;32;33752;-59
2023/11/08 01:25:43;;;;;;;10.60;4.82;;;;;;;24.45;41.09;99374.94;4483928;32;33656;-60
2023/11/08 01:28:11;;;;;;;8.05;4.65;;;;;;;24.45;41.10;99374.13;4484076;32;33622;-60
2023/11/08 01:30:39;;;;;;;7.75;4.80;;;;;;;24.45;40.92;99374.13;4483957;32;33280;-60
2023/11/08 01:33:08;;;;;;;7.90;4.93;;;;;;;24.43;40.99;99377.91;4483991;32;34687;-61
2023/11/08 01:35:37;;;;;;;7.57;4.70;;;;;;;24.43;41.03;99372.47;4484040;32;34790;-60
2023/11/08 01:38:05;;;;;;;9.55;4.85;;;;;;;24.43;40.98;99375.19;4483716;32;34033;-60
2023/11/08 01:40:33;;;;;;;8.25;4.75;;;;;;;24.45;41.10;99368.66;4484070;32;32878;-60
2023/11/08 01:43:00;;;;;;;7.43;4.28;;;;;;;24.43;41.06;99363.44;4483902;32;33596;-59
2023/11/08 01:45:28;;;;;;;7.30;4.65;;;;;;;24.41;41.18;99360.97;4483971;32;34005;-58
2023/11/08 01:47:56;;;;;;;8.48;4.82;;;;;;;24.41;41.14;99376.50;4483541;32;34508;-59
2023/11/08 01:50:23;;;;;;;7.50;4.32;;;;;;;24.40;41.08;99375.66;4482872;32;34983;-61
2023/11/08 01:52:51;;;;;;;8.38;4.82;;;;;;;24.40;41.14;99383.84;4485528;32;33676;-60
2023/11/08 01:55:19;;;;;;;6.43;4.07;;;;;;;24.40;41.11;99391.22;4485585;32;33858;-58
2023/11/08 01:57:46;;;;;;;8.05;4.80;;;;;;;24.39;41.30;99408.66;4484320;32;33949;-59
2023/11/08 02:00:14;;;;;;;8.20;4.30;;;;;;;24.39;41.21;99427.72;4484275;32;33881;-60
2023/11/08 02:02:44;;;;;;;12.27;4.50;;;;;;;24.39;41.32;99425.00;4484689;32;34647;-60
2023/11/08 02:05:12;;;;;;;8.13;4.32;;;;;;;24.38;41.30;99418.69;4485546;32;33900;-57
2023/11/08 02:07:39;;;;;;;6.93;4.40;;;;;;;24.38;41.27;99415.97;4484156;32;33599;-60
2023/11/08 02:10:08;;;;;;;7.20;4.82;;;;;;;24.37;41.40;99408.03;4485589;32;33570;-60
2023/11/08 02:12:36;;;;;;;9.07;4.35;;;;;;;24.38;41.33;99417.88;4485177;32;34071;-58
2023/11/08 02:15:05;;;;;;;9.15;4.47;;;;;;;24.39;41.29;99414.91;4484129;32;33828;-58
2023/11/08 02:17:37;;;;;;;8.57;3.87;;;;;;;24.37;41.25;99405.31;4485619;32;33614;-59
2023/11/08 02:20:06;;;;;;;6.68;4.32;;;;;;;24.37;41.30;99408.03;4485763;32;32982;-60
2023/11/08 02:22:35;;;;;;;9.77;4.37;;;;;;;24.36;41.31;99420.84;4485436;32;33858;-59
2023/11/08 02:25:04;;;;;;;6.97;4.50;;;;;;;24.38;41.27;99417.88;4485455;32;34774;-57
2023/11/08 02:27:32;;;;;;;7.07;4.60;;;;;;;24.36;41.28;99417.25;4484134;32;33721;-58
2023/11/08 02:29:59;;;;;;;8.02;4.62;;;;;;;24.37;41.23;99421.69;4485409;32;33823;-55
2023/11/08 02:32:27;;;;;;;5.85;3.53;;;;;;;24.36;41.25;99422.72;4485340;32;34307;-55
2023/11/08 02:34:55;;;;;;;7.20;4.68;;;;;;;24.35;41.27;99426.53;4485280;32;34055;-57
2023/11/08 02:37:22;;;;;;;7.03;4.07;;;;;;;24.34;41.34;99425.69;4485416;32;34683;-55
2023/11/08 02:39:49;;;;;;;6.80;4.53;;;;;;;24.35;41.33;99431.97;4485472;32;34218;-55
2023/11/08 02:42:18;;;;;;;6.70;4.20;;;;;;;24.33;41.36;99429.47;4485289;32;33786;-58
2023/11/08 02:44:45;;;;;;;7.55;4.22;;;;;;;24.34;41.34;99435.75;4484085;32;34807;-55
2023/11/08 02:47:13;;;;;;;5.75;4.15;;;;;;;24.34;41.33;99447.50;4485207;32;34439;-56
2023/11/08 02:49:40;;;;;;;7.00;4.12;;;;;;;24.33;41.35;99447.72;4484925;32;34468;-57
2023/11/08 02:52:08;;;;;;;6.78;3.40;;;;;;;24.32;41.45;99444.19;4485312;32;34780;-57
2023/11/08 02:54:44;;;;;;;7.05;4.55;;;;;;;24.32;41.32;99446.91;4485280;32;34743;-57
2023/11/08 02:57:11;;;;;;;7.75;4.10;;;;;;;24.33;41.41;99439.56;4485038;32;33337;-59
2023/11/08 02:59:40;;;;;;;5.30;3.80;;;;;;;24.32;41.42;99448.81;4485208;32;33337;-59
2023/11/08 03:02:09;;;;;;;7.03;4.40;;;;;;;24.32;41.48;99451.53;4484916;32;34533;-57
2023/11/08 03:04:38;;;;;;;6.18;3.78;;;;;;;24.32;41.51;99454.25;4485216;32;34604;-59
2023/11/08 03:07:06;;;;;;;6.20;3.83;;;;;;;24.32;41.47;99473.34;4485163;32;34176;-60
2023/11/08 03:09:34;;;;;;;7.53;4.12;;;;;;;24.32;41.62;99486.97;4485071;32;34319;-60
2023/11/08 03:12:02;;;;;;;6.28;3.97;;;;;;;24.31;41.68;99490.78;4483779;32;33795;-56
2023/11/08 03:14:30;;;;;;;5.82;3.62;;;;;;;24.30;41.59;99489.97;4484993;31;34764;-60
2023/11/08 03:17:00;;;;;;;7.28;4.43;;;;;;;24.31;41.49;99507.16;4484977;32;34466;-60
2023/11/08 03:19:30;;;;;;;6.22;3.85;;;;;;;24.30;41.47;99491.84;4485071;32;34267;-60
2023/11/08 03:22:00;;;;;;;;;;;;;;;24.30;41.74;99500.03;4485377;32;33294;-59
2023/11/08 03:24:28;;;;;;;9.40;4.10;;;;;;;24.38;41.36;99492.31;4484999;32;34101;-58
2023/11/08 03:26:55;;;;;;;6.80;4.03;;;;;;;24.32;41.60;99489.72;4484932;32;33828;-60
2023/11/08 03:29:23;;;;;;;8.45;4.12;;;;;;;24.29;41.73;99490.19;4484913;32;34124;-59
2023/11/08 03:31:50;;;;;;;8.35;4.15;;;;;;;24.28;41.83;99488.53;4485017;32;34541;-54
2023/11/08 03:34:18;;;;;;;9.18;3.92;;;;;;;24.27;41.86;99484.97;4485000;32;34922;-58
2023/11/08 03:36:46;;;;;;;8.15;4.07;;;;;;;24.28;41.76;99485.78;4485048;32;35301;-57
2023/11/08 03:39:13;;;;;;;6.22;3.72;;;;;;;24.27;41.79;99495.88;4484693;32;33942;-55
2023/11/08 03:41:41;;;;;;;7.00;3.97;;;;;;;24.27;41.81;99498.59;4484916;32;34004;-57
2023/11/08 03:44:09;;;;;;;6.22;3.67;;;;;;;24.28;41.78;99500.25;4483446;32;34018;-56
2023/11/08 03:46:36;;;;;;;6.78;4.37;;;;;;;24.27;41.66;99495.06;4484811;32;33907;-57
2023/11/08 03:49:04;;;;;;;6.60;3.80;;;;;;;24.26;41.70;99505.13;4484672;32;33110;-55
2023/11/08 03:51:32;;;;;;;6.15;3.67;;;;;;;24.26;41.65;99507.03;4485016;32;33949;-56
2023/11/08 03:53:59;;;;;;;6.70;3.70;;;;;;;24.26;41.67;99509.75;4484627;32;34104;-60
2023/11/08 03:56:30;;;;;;;8.18;3.95;;;;;;;24.25;41.75;99511.66;4484791;32;33908;-56
2023/11/08 03:58:57;;;;;;;;;;;;;;;24.25;41.68;99516.25;4485067;32;34349;-59
2023/11/08 04:01:24;;;;;;;5.82;3.70;;;;;;;24.36;41.38;99518.16;4484957;32;34260;-58
2023/11/08 04:03:52;;;;;;;6.30;3.80;;;;;;;24.28;41.55;99526.69;4484753;32;33879;-59
2023/11/08 04:06:20;;;;;;;6.50;3.45;;;;;;;24.25;41.68;99532.62;4485042;32;34244;-57
2023/11/08 04:08:47;;;;;;;5.80;3.40;;;;;;;24.24;41.71;99528.25;4484497;32;34324;-60
2023/11/08 04:11:15;;;;;;;5.57;3.53;;;;;;;24.23;41.69;99530.13;4483561;32;34096;-59
2023/11/08 04:13:42;;;;;;;6.10;3.50;;;;;;;24.23;41.65;99532.88;4483888;32;34011;-59
2023/11/08 04:16:10;;;;;;;6.78;3.62;;;;;;;24.23;41.66;99534.75;4484321;32;33792;-59
2023/11/08 04:18:38;;;;;;;6.05;3.85;;;;;;;24.22;41.76;99530.38;4484824;32;34102;-60
2023/11/08 04:21:05;;;;;;;6.20;3.50;;;;;;;24.22;41.63;99535.84;4484587;32;33629;-60
2023/11/08 04:23:33;;;;;;;8.27;4.10;;;;;;;24.22;41.83;99544.03;4484426;32;33688;-59
2023/11/08 04:26:00;;;;;;;6.70;3.97;;;;;;;24.22;41.81;99549.47;4484488;32;34759;-59
2023/11/08 04:28:28;;;;;;;5.80;3.40;;;;;;;24.21;41.86;99554.09;4484552;32;33632;-59
2023/11/08 04:30:55;;;;;;;5.65;3.33;;;;;;;24.21;41.84;99556.81;4484453;32;34921;-60
2023/11/08 04:33:23;;;;;;;5.60;3.37;;;;;;;24.21;41.84;99558.72;4484530;32;33860;-60
2023/11/08 04:35:51;;;;;;;5.70;3.35;;;;;;;24.21;41.77;99558.72;4484555;32;33894;-58
2023/11/08 04:38:19;;;;;;;6.65;3.33;;;;;;;24.21;41.70;99564.19;4484484;32;33281;-60
2023/11/08 04:40:47;;;;;;;6.35;3.72;;;;;;;24.21;41.70;99567.72;4484546;32;33997;-56
2023/11/08 04:43:15;;;;;;;9.05;3.50;;;;;;;24.22;41.74;99560.38;4484545;32;33931;-60
2023/11/08 04:45:43;;;;;;;5.97;3.58;;;;;;;24.19;41.76;99562.50;4484522;32;33378;-59
2023/11/08 04:48:11;;;;;;;7.03;3.60;;;;;;;24.19;41.74;99550.75;4484200;31;33442;-60
2023/11/08 04:50:42;;;;;;;5.80;3.65;;;;;;;24.19;41.80;99558.94;4484247;32;33400;-57
2023/11/08 04:53:10;;;;;;;4.40;3.03;;;;;;;24.18;41.80;99552.66;4484454;32;33508;-60
2023/11/08 04:55:39;;;;;;;6.97;3.12;;;;;;;24.18;41.70;99558.13;4484434;32;34787;-60
2023/11/08 04:58:06;;;;;;;7.28;3.25;;;;;;;24.19;41.73;99564.38;4484208;32;33425;-60
2023/11/08 05:00:34;;;;;;;6.43;3.30;;;;;;;24.18;41.70;99554.56;4484283;32;34602;-59
2023/11/08 05:03:02;;;;;;;6.35;3.50;;;;;;;24.18;41.64;99554.56;4484370;32;34126;-60
2023/11/08 05:05:29;;;;;;;7.57;3.42;;;;;;;24.17;41.69;99552.91;4484208;32;34186;-60
2023/11/08 05:07:57;;;;;;;5.37;3.20;;;;;;;24.18;41.68;99554.56;4484301;32;33700;-59
2023/11/08 05:10:25;;;;;;;6.47;3.53;;;;;;;24.16;41.64;99560.25;4484174;32;33642;-60
2023/11/08 05:12:52;;;;;;;6.18;3.37;;;;;;;24.18;41.68;99563.56;4483963;32;34033;-59
2023/11/08 05:15:20;;;;;;;6.40;3.50;;;;;;;24.17;41.72;99561.91;4484188;32;33771;-59
2023/11/08 05:17:48;;;;;;;7.10;3.58;;;;;;;24.16;41.72;99563.00;4484146;32;33581;-60
2023/11/08 05:20:15;;;;;;;5.32;3.05;;;;;;;24.16;41.75;99562.16;4484021;32;33914;-58
2023/11/08 05:22:43;;;;;;;6.20;3.30;;;;;;;24.14;41.86;99554.19;4484100;32;33976;-59
2023/11/08 05:25:11;;;;;;;5.07;3.35;;;;;;;24.14;41.87;99564.28;4483719;32;34351;-59
2023/11/08 05:27:43;;;;;;;7.00;3.70;;;;;;;24.14;41.83;99567.81;4484112;32;33441;-60
2023/11/08 05:30:10;;;;;;;5.45;3.50;;;;;;;24.16;41.83;99570.34;4483934;32;33994;-60
2023/11/08 05:32:39;;;;;;;4.57;3.03;;;;;;;24.15;41.83;99572.25;4484318;32;34012;-58
2023/11/08 05:35:07;;;;;;;7.45;3.42;;;;;;;24.14;41.96;99575.19;4483533;32;35053;-59
2023/11/08 05:37:35;;;;;;;5.25;3.17;;;;;;;24.13;41.92;99582.53;4483547;32;33434;-57
2023/11/08 05:40:03;;;;;;;5.75;3.15;;;;;;;24.14;41.97;99586.09;4483894;32;33832;-57
2023/11/08 05:42:31;;;;;;;5.78;3.30;;;;;;;24.14;41.74;99594.25;4483893;32;33509;-56
2023/11/08 05:44:58;;;;;;;5.65;3.28;;;;;;;24.14;41.86;99597.81;4483895;32;34114;-57
2023/11/08 05:47:26;;;;;;;5.65;3.42;;;;;;;24.13;41.81;99598.88;4483692;32;34141;-54
2023/11/08 05:49:54;;;;;;;4.55;2.70;;;;;;;24.13;41.84;99596.16;4483651;32;34779;-60
2023/11/08 05:52:21;;;;;;;4.93;3.30;;;;;;;24.13;41.77;99598.88;4484005;32;34782;-60
2023/11/08 05:54:51;;;;;;;5.65;3.10;;;;;;;24.13;41.84;99607.06;4483574;32;33571;-59
2023/11/08 05:57:19;;;;;;;5.30;3.12;;;;;;;24.14;41.87;99600.53;4483691;32;34427;-60
2023/11/08 05:59:47;;;;;;;6.78;3.60;;;;;;;24.13;41.83;99620.69;4483691;32;33932;-61
2023/11/08 06:02:14;;;;;;;6.15;3.50;;;;;;;24.12;41.92;99608.12;4483456;32;34895;-58
2023/11/08 06:04:42;;;;;;;8.00;3.78;;;;;;;24.11;42.02;99622.84;4483457;32;34365;-60
2023/11/08 06:07:10;;;;;;;7.10;3.28;;;;;;;24.11;41.99;99630.19;4483467;32;33542;-60
2023/11/08 06:09:37;;;;;;;5.43;2.90;;;;;;;24.11;42.05;99630.19;4483217;32;33921;-55
2023/11/08 06:12:06;;;;;;;5.87;3.00;;;;;;;24.11;41.84;99641.09;4483742;32;34632;-61
2023/11/08 06:14:33;;;;;;;4.85;3.00;;;;;;;24.11;41.97;99635.63;4483693;32;33675;-60
2023/11/08 06:17:01;;;;;;;4.72;2.92;;;;;;;24.10;41.98;99640.22;4483308;32;33081;-60
2023/11/08 06:19:29;;;;;;;5.65;3.08;;;;;;;24.10;42.02;99650.31;4483559;32;33551;-60
2023/11/08 06:21:57;;;;;;;4.87;2.80;;;;;;;24.10;42.04;99651.13;4483334;32;34035;-57
2023/11/08 06:24:25;;;;;;;4.90;3.15;;;;;;;24.11;41.91;99661.00;4483120;32;33865;-61
2023/11/08 06:26:53;;;;;;;5.40;3.17;;;;;;;24.11;42.00;99663.72;4483230;32;34099;-60
2023/11/08 06:29:20;;;;;;;5.12;3.00;;;;;;;24.10;41.88;99667.50;4482934;32;33209;-60
2023/11/08 06:31:48;;;;;;;4.90;2.95;;;;;;;24.10;41.97;99681.13;4482816;32;34917;-60
2023/11/08 06:34:15;;;;;;;4.70;3.05;;;;;;;24.10;41.92;99680.28;4482839;32;33967;-60
2023/11/08 06:36:43;;;;;;;4.72;3.03;;;;;;;24.08;41.94;99685.16;4482976;32;33184;-61
2023/11/08 06:39:14;;;;;;;5.82;3.75;;;;;;;24.08;41.94;99691.44;4484752;32;33877;-60
2023/11/08 06:41:42;;;;;;;5.05;2.95;;;;;;;24.10;42.05;99704.81;4485128;32;34825;-61
2023/11/08 06:44:09;;;;;;;5.90;3.12;;;;;;;24.08;42.07;99699.62;4484996;32;34269;-58
2023/11/08 06:46:37;;;;;;;4.60;3.00;;;;;;;24.09;42.02;99704.00;4484839;32;33202;-60
2023/11/08 06:49:08;;;;;;;5.25;3.10;;;;;;;24.08;42.05;99704.25;4484671;32;32587;-60
2023/11/08 06:51:36;;;;;;;5.45;2.90;;;;;;;24.09;42.04;99703.16;4484939;32;34790;-61
2023/11/08 06:54:03;;;;;;;6.07;2.92;;;;;;;24.09;42.16;99716.78;4484839;32;34985;-61
2023/11/08 06:56:32;;;;;;;10.05;3.00;;;;;;;24.10;42.16;99722.00;4485205;32;33672;-61
2023/11/08 06:59:00;;;;;;;20.02;3.75;;;;;;;24.08;40.25;99732.31;4485295;32;33831;-60
2023/11/08 07:01:27;;;;;;;14.30;2.60;;;;;;;24.03;40.24;99729.47;4484146;32;34827;-60
2023/11/08 07:03:55;;;;;;;8.90;2.83;;;;;;;24.01;40.43;99728.84;4484357;32;33754;-58
2023/11/08 07:06:23;;;;;;;3.92;2.15;;;;;;;24.01;40.46;99733.47;4484975;32;34070;-61
2023/11/08 07:08:50;;;;;;;6.85;2.92;;;;;;;24.00;40.56;99742.72;4483408;32;33532;-60
2023/11/08 07:11:18;;;;;;;7.65;2.80;;;;;;;23.98;40.66;99745.69;4484777;32;34876;-59
2023/11/08 07:13:46;;;;;;;6.85;2.60;;;;;;;23.97;40.75;99748.63;4484692;32;34502;-59
2023/11/08 07:16:13;;;;;;;8.65;2.92;;;;;;;23.97;40.87;99756.81;4484878;32;33447;-59
2023/11/08 07:18:41;;;;;;;7.80;2.50;;;;;;;23.96;41.08;99761.44;4484468;32;34078;-57
2023/11/08 07:21:16;;;;;;;7.47;2.62;;;;;;;23.96;41.04;99764.16;4485090;32;33937;-58
2023/11/08 07:23:44;;;;;;;5.20;2.47;;;;;;;23.95;41.02;99762.50;4485094;32;34506;-56
2023/11/08 07:26:15;;;;;;;6.10;2.90;;;;;;;23.95;41.03;99764.37;4484917;32;34290;-58
2023/11/08 07:28:44;;;;;;;9.57;2.62;;;;;;;23.93;41.11;99767.34;4484880;32;34337;-59
2023/11/08 07:31:12;;;;;;;6.40;2.58;;;;;;;23.93;41.17;99772.81;4457838;32;35666;-60
2023/11/08 07:33:39;;;;;;;5.20;2.45;;;;;;;23.92;41.18;99769.25;4484884;32;34747;-58
2023/11/08 07:36:07;;;;;;;6.62;3.05;;;;;;;23.93;41.19;99767.34;4484678;32;34287;-58
2023/11/08 07:38:35;;;;;;;5.47;2.65;;;;;;;23.93;41.24;99772.81;4483631;32;33899;-56
2023/11/08 07:41:03;;;;;;;6.50;2.80;;;;;;;23.93;41.25;99767.34;4484916;32;34877;-58
2023/11/08 07:43:31;;;;;;;3.80;2.30;;;;;;;23.92;41.25;99765.66;4483941;32;34382;-60
2023/11/08 07:45:59;;;;;;;5.75;2.10;;;;;;;23.92;41.25;99758.34;4484826;32;34111;-59
2023/11/08 07:48:26;;;;;;;8.07;2.40;;;;;;;23.93;41.27;99770.06;4481923;32;33917;-49
2023/11/08 07:50:54;;;;;;;5.80;2.40;;;;;;;23.93;41.26;99768.19;4483587;32;33853;-52
2023/11/08 07:53:22;;;;;;;4.80;2.60;;;;;;;23.93;41.25;99760.00;4484764;32;33820;-50
2023/11/08 07:55:49;;;;;;;5.35;2.70;;;;;;;23.94;41.27;99760.84;4484641;32;33379;-60
2023/11/08 07:58:18;;;;;;;6.50;2.22;;;;;;;23.94;41.25;99747.22;4484778;32;33505;-59
2023/11/08 08:00:45;;;;;;;6.37;2.20;;;;;;;23.95;41.25;99758.94;4484248;32;34012;-60
2023/11/08 08:03:13;;;;;;;4.12;2.10;;;;;;;23.95;41.25;99753.50;4484648;32;34052;-59
2023/11/08 08:05:46;;;;;;;5.35;2.40;;;;;;;23.95;41.24;99757.03;4484638;32;33147;-55
2023/11/08 08:08:14;;;;;;;4.80;2.22;;;;;;;23.95;41.27;99761.66;4484579;32;33907;-60
2023/11/08 08:10:44;;;;;;;5.87;2.53;;;;;;;23.95;41.27;99748.87;4484647;32;34043;-59
2023/11/08 08:13:13;;;;;;;;;;;;;;;23.96;41.33;99757.87;4485186;31;33864;-59
2023/11/08 08:15:54;;;;;;;4.20;1.95;;;;;;;24.05;41.17;99760.03;4484891;32;33429;-60
2023/11/08 08:18:22;;;;;;;8.38;2.60;;;;;;;23.99;41.28;99757.41;4484522;32;32884;-59
2023/11/08 08:20:50;;;;;;;3.90;2.15;;;;;;;23.97;41.37;99756.81;4484792;32;33859;-59
2023/11/08 08:23:17;;;;;;;5.35;2.45;;;;;;;23.96;41.44;99757.87;4484493;32;33923;-53
2023/11/08 08:25:45;;;;;;;4.87;2.28;;;;;;;23.96;41.45;99758.69;4484777;32;33179;-59
2023/11/08 08:28:13;;;;;;;5.65;2.67;;;;;;;23.97;41.47;99756.81;4484678;32;34581;-59
2023/11/08 08:30:43;;;;;;;5.45;2.33;;;;;;;23.97;41.48;99763.09;4481586;32;34237;-58
2023/11/08 08:33:10;;;;;;;4.45;2.08;;;;;;;23.98;41.49;99766.66;4483027;32;34192;-59
2023/11/08 08:35:38;;;;;;;5.30;2.00;;;;;;;23.98;41.50;99767.50;4484268;32;33869;-60
2023/11/08 08:38:06;;;;;;;6.28;2.30;;;;;;;23.98;41.49;99758.50;4484263;32;34237;-60
2023/11/08 08:40:33;;;;;;;3.85;2.15;;;;;;;23.98;41.48;99775.66;4484566;32;33961;-56
2023/11/08 08:43:04;;;;;;;3.85;1.80;;;;;;;23.99;41.48;99760.16;4484454;32;34758;-60
2023/11/08 08:45:33;;;;;;;5.30;2.10;;;;;;;23.99;41.50;99769.16;4484180;32;33041;-58
2023/11/08 08:48:00;;;;;;;6.85;2.08;;;;;;;24.00;41.51;99761.81;4480581;32;33912;-58
2023/11/08 08:50:28;;;;;;;4.75;1.98;;;;;;;24.01;41.52;99755.28;4482318;32;33719;-55
2023/11/08 08:52:56;;;;;;;4.85;1.87;;;;;;;24.01;41.51;99764.28;4481681;32;33982;-50
2023/11/08 08:55:24;;;;;;;3.85;2.10;;;;;;;24.02;41.51;99767.88;4479199;32;32858;-55
2023/11/08 08:57:52;;;;;;;4.60;2.53;;;;;;;24.02;41.52;99767.88;4482084;32;33950;-56
2023/11/08 09:00:21;;;;;;;5.28;2.40;;;;;;;24.02;41.52;99762.41;4480498;32;34419;-58
2023/11/08 09:02:49;;;;;;;4.07;1.80;;;;;;;24.04;41.51;99771.19;4482910;32;33956;-49
2023/11/08 09:05:20;;;;;;;5.35;1.80;;;;;;;24.04;41.49;99763.84;4484347;32;33343;-59
2023/11/08 09:07:50;;;;;;;3.58;2.15;;;;;;;24.04;41.53;99761.09;4483074;32;33850;-49
2023/11/08 09:10:17;;;;;;;5.15;1.85;;;;;;;24.03;41.61;99773.06;4484249;32;33976;-51
2023/11/08 09:12:45;;;;;;;5.20;2.00;;;;;;;24.05;41.81;99781.00;4478895;32;33978;-50
2023/11/08 09:15:13;;;;;;;4.95;2.25;;;;;;;24.05;41.91;99770.13;4484246;32;34171;-50
2023/11/08 09:17:41;;;;;;;4.65;1.87;;;;;;;24.05;42.09;99770.13;4484474;32;33897;-58
2023/11/08 09:20:08;;;;;;;5.45;2.33;;;;;;;24.05;42.09;99768.22;4484166;32;34004;-55
2023/11/08 09:22:37;;;;;;;4.50;2.45;;;;;;;24.05;42.28;99772.84;4484101;32;34240;-57
2023/11/08 09:25:07;;;;;;;6.50;1.87;;;;;;;24.06;42.31;99771.78;4468279;32;34448;-48
2023/11/08 09:27:35;;;;;;;4.18;2.12;;;;;;;24.05;42.27;99776.38;4468308;32;34599;-56
2023/11/08 09:30:05;;;;;;;6.50;2.28;;;;;;;24.07;42.16;99779.72;4466627;32;33916;-58
2023/11/08 09:32:32;;;;;;;2.33;1.73;;;;;;;24.05;42.44;99789.19;4483879;32;34032;-50
2023/11/08 09:35:01;;;;;;;5.05;2.08;;;;;;;24.05;42.24;99784.56;4483918;32;34384;-51
2023/11/08 09:37:29;;;;;;;6.45;1.92;;;;;;;24.04;42.14;99782.91;4483991;32;33883;-49
2023/11/08 09:39:57;;;;;;;4.03;1.70;;;;;;;24.04;42.22;99793.00;4483940;32;33719;-47
2023/11/08 09:42:29;;;;;;;5.35;1.90;;;;;;;24.04;41.95;99788.37;4483740;32;33683;-50
2023/11/08 09:44:58;;;;;;;4.18;1.75;;;;;;;24.03;41.99;99789.44;4482752;32;34039;-49
2023/11/08 09:47:26;;;;;;;7.47;2.33;;;;;;;24.03;41.84;99796.78;4469532;32;34687;-48
2023/11/08 09:49:53;;;;;;;4.60;1.77;;;;;;;24.03;41.85;99791.34;4483631;32;33622;-53
2023/11/08 09:52:23;;;;;;;5.18;1.87;;;;;;;24.02;41.81;99793.22;4469757;32;33822;-50
2023/11/08 09:54:52;;;;;;;7.00;1.98;;;;;;;24.03;41.71;99800.34;4483620;32;33281;-50
2023/11/08 09:57:20;;;;;;;7.22;2.40;;;;;;;24.01;41.83;99799.72;4483689;32;33919;-49
2023/11/08 09:59:48;;;;;;;3.45;1.90;;;;;;;24.00;41.89;99792.59;4482482;32;34760;-48
2023/11/08 10:02:15;;;;;;;6.85;1.83;;;;;;;24.01;41.97;99794.25;4482301;32;34560;-49
2023/11/08 10:04:43;;;;;;;4.93;1.75;;;;;;;24.00;41.76;99791.78;4482505;32;34196;-49
2023/11/08 10:07:14;;;;;;;3.00;1.70;;;;;;;23.99;41.53;99788.22;4482641;32;33880;-53
2023/11/08 10:09:41;;;;;;;6.37;1.90;;;;;;;23.99;41.29;99785.50;4483440;32;33928;-50
2023/11/08 10:12:11;;;;;;;2.70;1.62;;;;;;;23.98;41.21;99794.75;4483735;32;34141;-49
2023/11/08 10:14:44;;;;;;;5.37;1.85;;;;;;;23.96;40.88;99807.75;4484566;32;33489;-50
2023/11/08 10:17:12;;;;;;;3.35;1.55;;;;;;;23.96;41.24;99801.47;4485423;32;34690;-50
2023/11/08 10:19:59;;;;;;;3.05;1.73;;;;;;;23.95;41.23;99792.47;4485503;32;33884;-49
2023/11/08 10:22:28;;;;;;;3.85;1.50;;;;;;;23.95;41.24;99797.09;4485312;32;33934;-50
2023/11/08 10:25:02;;;;;;;4.20;1.52;;;;;;;23.93;41.25;99789.97;4484968;32;33307;-51
2023/11/08 10:27:31;;;;;;;3.65;1.85;;;;;;;23.93;41.21;99789.16;4485146;32;33895;-51
2023/11/08 10:30:12;;;;;;;4.07;1.57;;;;;;;23.91;41.21;99794.81;4485413;32;33905;-49
2023/11/08 10:32:40;;;;;;;5.30;1.48;;;;;;;23.92;41.16;99791.06;4485086;32;34505;-49
2023/11/08 10:35:21;;;;;;;3.62;1.65;;;;;;;23.90;41.18;99793.16;4484740;32;33074;-48
2023/11/08 10:37:49;;;;;;;3.60;1.70;;;;;;;23.91;41.16;99810.34;4477906;32;33735;-52
2023/11/08 10:40:17;;;;;;;3.30;1.48;;;;;;;23.88;41.20;99813.53;4482549;32;34464;-57
2023/11/08 10:42:51;;;;;;;3.90;1.37;;;;;;;23.88;41.22;99814.38;4484872;32;33883;-49
2023/11/08 10:45:20;;;;;;;4.43;1.60;;;;;;;23.88;41.23;99816.28;4479691;32;33259;-58
2023/11/08 10:47:48;;;;;;;3.35;1.30;;;;;;;23.87;41.22;99818.13;4484276;31;33394;-53
2023/11/08 10:50:16;;;;;;;2.83;1.40;;;;;;;23.87;41.22;99823.59;4485290;32;34039;-51
2023/11/08 10:52:46;;;;;;;6.15;1.70;;;;;;;23.87;41.24;99833.66;4470059;32;34037;-56
2023/11/08 10:55:14;;;;;;;5.10;1.27;;;;;;;23.86;41.25;99823.81;4482794;32;34271;-55
2023/11/08 10:57:44;;;;;;;4.45;1.48;;;;;;;23.87;41.25;99820.03;4484811;32;33685;-48
2023/11/08 11:00:12;;;;;;;4.18;1.95;;;;;;;23.85;41.27;99833.06;4476495;31;34978;-59
2023/11/08 11:02:48;;;;;;;4.97;1.70;;;;;;;23.85;41.27;99828.44;4482046;32;34004;-58
2023/11/08 11:05:23;;;;;;;4.50;1.70;;;;;;;23.84;41.30;99815.88;4470650;32;32539;-51
2023/11/08 11:07:53;;;;;;;4.20;1.50;;;;;;;23.85;41.30;99808.53;4483799;32;33900;-52
2023/11/08 11:10:21;;;;;;;2.70;1.42;;;;;;;23.84;41.33;99810.44;4485042;32;33897;-57
2023/11/08 11:13:04;;;;;;;3.15;1.55;;;;;;;23.85;41.33;99811.25;4480393;32;33861;-52
2023/11/08 11:15:38;;;;;;;3.85;1.48;;;;;;;23.86;41.34;99810.19;4469386;32;33745;-57
2023/11/08 11:18:11;;;;;;;4.47;1.70;;;;;;;23.84;41.42;99806.88;4469157;32;33843;-50
2023/11/08 11:20:42;;;;;;;1.77;1.12;;;;;;;23.83;41.45;99803.31;4455353;32;34910;-59
2023/11/08 11:23:30;;;;;;;3.90;1.70;;;;;;;23.82;41.49;99804.38;4470584;32;33607;-59
2023/11/08 11:25:58;;;;;;;2.62;1.25;;;;;;;23.84;41.46;99807.72;4484942;32;34264;-59
2023/11/08 11:28:52;;;;;;;4.00;1.50;;;;;;;23.81;41.51;99796.44;4484642;32;34586;-53
2023/11/08 11:31:33;;;;;;;2.80;1.40;;;;;;;23.83;41.50;99786.16;4484791;32;34997;-58
2023/11/08 11:34:29;;;;;;;2.90;1.35;;;;;;;23.82;41.54;99798.09;4484904;32;33415;-48
2023/11/08 11:37:09;;;;;;;3.70;1.40;;;;;;;23.81;41.56;99804.59;4473573;32;33426;-56
2023/11/08 11:39:38;;;;;;;4.25;1.65;;;;;;;23.81;41.57;99804.59;4482617;32;34015;-58
2023/11/08 11:42:07;;;;;;;3.45;1.77;;;;;;;23.79;41.61;99804.00;4484600;32;33957;-50